Time;durP1;ratioP1;P1;durP2;ratioP2;P2;SDS_P1;SDS_P2;PMS_P1;PMS_P2;Temp;Humidity;BMP_temperature;BMP_pressure;BME280_temperature;BME280_humidity;BME280_pressure;Samples;Min_cycle;Max_cycle;Signal;HPM_P1;HPM_P2
2023/04/30 00:00:20;;;;;;;11.75;3.53;;;;;;;9.12;65.79;102417.06;7396643;19;20018;-58
2023/04/30 00:02:48;;;;;;;9.77;3.53;;;;;;;8.93;66.37;102419.59;7393508;19;20022;-58
2023/04/30 00:05:15;;;;;;;12.05;3.92;;;;;;;8.89;66.71;102422.38;7394359;19;20028;-58
2023/04/30 00:07:42;;;;;;;10.55;3.33;;;;;;;8.95;66.36;102428.31;7395210;19;20019;-57
2023/04/30 00:10:10;;;;;;;11.40;3.42;;;;;;;9.03;66.10;102433.28;7394075;19;20023;-58
2023/04/30 00:12:37;;;;;;;10.68;2.90;;;;;;;8.81;66.88;102433.25;7392958;19;20479;-58
2023/04/30 00:15:08;;;;;;;12.55;3.58;;;;;;;8.73;67.18;102436.19;7393791;19;20018;-58
2023/04/30 00:17:38;;;;;;;10.35;3.08;;;;;;;8.63;67.94;102429.56;7395813;19;20043;-58
2023/04/30 00:20:06;;;;;;;12.32;3.80;;;;;;;8.70;68.02;102433.72;7394909;19;20014;-58
2023/04/30 00:22:33;;;;;;;9.55;3.03;;;;;;;8.78;67.70;102436.06;7394445;19;20022;-58
2023/04/30 00:25:00;;;;;;;13.57;3.10;;;;;;;8.83;67.13;102434.06;7394703;19;20015;-58
2023/04/30 00:27:27;;;;;;;13.65;3.30;;;;;;;8.65;67.74;102443.56;7394311;19;20030;-58
2023/04/30 00:29:54;;;;;;;10.80;3.03;;;;;;;8.84;67.31;102443.72;7395138;19;20039;-58
2023/04/30 00:32:22;;;;;;;10.05;3.20;;;;;;;8.66;67.83;102452.34;7394902;19;20018;-58
2023/04/30 00:34:49;;;;;;;15.68;3.08;;;;;;;8.74;67.45;102445.88;7394649;19;20023;-58
2023/04/30 00:37:16;;;;;;;13.13;3.60;;;;;;;8.51;67.64;102444.13;7393189;19;20613;-58
2023/04/30 00:39:43;;;;;;;15.63;3.08;;;;;;;8.53;68.26;102449.31;7394692;19;20022;-57
2023/04/30 00:42:10;;;;;;;13.00;3.30;;;;;;;8.30;68.95;102439.59;7394165;19;20507;-58
2023/04/30 00:44:39;;;;;;;13.73;3.38;;;;;;;8.13;70.16;102447.25;7394253;19;20048;-58
2023/04/30 00:47:06;;;;;;;9.40;2.75;;;;;;;8.15;69.90;102446.28;7395453;19;20039;-57
2023/04/30 00:49:33;;;;;;;9.93;2.80;;;;;;;8.13;70.40;102442.84;7390405;19;20019;-57
2023/04/30 00:52:01;;;;;;;12.65;3.78;;;;;;;8.02;70.56;102447.66;7395133;19;20026;-57
2023/04/30 00:54:28;;;;;;;12.93;3.53;;;;;;;7.91;70.66;102450.66;7391360;19;20501;-58
2023/04/30 00:56:55;;;;;;;11.13;3.22;;;;;;;7.98;70.24;102449.53;7394366;19;20015;-57
2023/04/30 00:59:23;;;;;;;10.40;3.28;;;;;;;8.07;70.01;102450.97;7393714;19;20022;-57
2023/04/30 01:01:51;;;;;;;10.57;3.30;;;;;;;8.23;69.50;102453.94;7394026;19;20026;-58
2023/04/30 01:04:18;;;;;;;9.02;2.90;;;;;;;8.27;69.24;102448.47;7392215;19;20015;-58
2023/04/30 01:06:46;;;;;;;10.25;3.15;;;;;;;8.26;69.40;102448.53;7391994;19;20011;-58
2023/04/30 01:09:15;;;;;;;10.73;3.35;;;;;;;8.17;69.54;102447.09;7392150;19;20041;-58
2023/04/30 01:12:17;;;;;;;8.65;2.80;;;;;;;8.35;68.37;102453.47;7391685;19;20491;-58
2023/04/30 01:15:31;;;;;;;14.10;3.20;;;;;;;8.18;69.37;102453.25;7391665;19;20476;-58
2023/04/30 01:18:20;;;;;;;10.43;3.03;;;;;;;7.85;70.75;102453.50;7393335;19;20022;-58
2023/04/30 01:20:51;;;;;;;9.77;3.22;;;;;;;7.97;70.40;102458.34;7393418;19;20018;-58
2023/04/30 01:23:31;;;;;;;11.00;3.47;;;;;;;7.90;70.30;102455.97;7392700;19;20014;-59
2023/04/30 01:26:07;;;;;;;9.55;3.35;;;;;;;7.86;70.78;102449.09;7391151;19;20019;-59
2023/04/30 01:28:35;;;;;;;10.73;3.08;;;;;;;7.98;70.01;102456.59;7392681;19;20074;-59
2023/04/30 01:31:13;;;;;;;11.27;3.38;;;;;;;7.84;70.50;102453.56;7393558;19;20101;-59
2023/04/30 01:33:41;;;;;;;11.13;3.67;;;;;;;7.66;71.33;102461.19;7390153;19;20021;-60
2023/04/30 01:36:11;;;;;;;10.15;3.10;;;;;;;7.87;70.64;102456.97;7391584;19;20445;-58
2023/04/30 01:38:53;;;;;;;12.20;3.40;;;;;;;7.80;70.59;102458.94;7392259;19;20500;-59
2023/04/30 01:41:33;;;;;;;15.40;3.75;;;;;;;8.07;69.80;102458.91;7392966;19;20480;-59
2023/04/30 01:44:15;;;;;;;12.50;3.20;;;;;;;8.14;69.26;102468.31;7390484;19;20027;-59
2023/04/30 01:46:50;;;;;;;9.80;3.38;;;;;;;8.20;69.09;102469.88;7392855;19;20044;-59
2023/04/30 01:49:26;;;;;;;8.65;2.90;;;;;;;8.00;69.30;102457.38;7390825;19;20014;-58
2023/04/30 01:52:02;;;;;;;10.25;3.58;;;;;;;8.03;69.29;102462.56;7391118;19;20021;-58
2023/04/30 01:54:46;;;;;;;9.85;3.28;;;;;;;7.81;69.92;102465.09;7388667;19;20015;-58
2023/04/30 01:57:35;;;;;;;10.98;3.60;;;;;;;7.89;69.50;102460.41;7392245;19;20039;-58
2023/04/30 02:00:03;;;;;;;9.68;3.20;;;;;;;7.96;69.23;102466.34;7389663;19;20078;-59
2023/04/30 02:02:30;;;;;;;9.60;3.75;;;;;;;7.88;69.32;102461.31;7391973;19;20026;-59
2023/04/30 02:04:57;;;;;;;9.93;3.03;;;;;;;7.94;69.38;102466.41;7389935;19;20019;-57
2023/04/30 02:07:46;;;;;;;12.45;3.80;;;;;;;7.69;70.56;102474.28;7391743;19;20014;-57
2023/04/30 02:10:15;;;;;;;9.50;3.50;;;;;;;7.40;71.71;102485.78;7390771;19;20018;-58
2023/04/30 02:12:42;;;;;;;11.20;3.47;;;;;;;7.33;72.17;102484.28;7391787;19;20055;-58
2023/04/30 02:15:10;;;;;;;11.15;3.78;;;;;;;7.26;72.53;102485.38;7389505;19;20019;-58
2023/04/30 02:17:37;;;;;;;11.90;3.97;;;;;;;7.21;72.62;102477.63;7392099;19;20019;-58
2023/04/30 02:20:06;;;;;;;12.63;3.97;;;;;;;7.14;72.95;102488.41;7390102;19;20018;-59
2023/04/30 02:22:33;;;;;;;11.95;3.90;;;;;;;7.42;72.05;102488.38;7390264;19;20347;-59
2023/04/30 02:25:00;;;;;;;13.00;4.07;;;;;;;7.63;70.58;102478.88;7390576;19;20022;-59
2023/04/30 02:27:29;;;;;;;11.75;3.53;;;;;;;7.50;70.91;102476.66;7391269;19;20035;-57
2023/04/30 02:29:57;;;;;;;10.10;3.83;;;;;;;7.48;71.27;102490.84;7389913;19;20015;-59
2023/04/30 02:32:24;;;;;;;12.90;3.78;;;;;;;7.54;70.74;102493.25;7391159;19;20022;-58
2023/04/30 02:34:51;;;;;;;11.65;3.83;;;;;;;7.48;70.91;102496.09;7391199;19;20496;-59
2023/04/30 02:37:18;;;;;;;9.15;3.47;;;;;;;7.33;71.89;102498.31;7389395;19;20374;-59
2023/04/30 02:39:46;;;;;;;9.82;3.60;;;;;;;7.24;72.26;102498.59;7388810;19;20492;-59
2023/04/30 02:42:13;;;;;;;9.88;3.58;;;;;;;7.21;72.57;102497.81;7390418;19;20014;-59
2023/04/30 02:44:40;;;;;;;12.68;4.05;;;;;;;7.17;73.13;102498.81;7389516;19;20019;-60
2023/04/30 02:47:07;;;;;;;11.15;3.50;;;;;;;7.13;73.48;102494.56;7388542;19;20515;-59
2023/04/30 02:49:34;;;;;;;12.40;4.15;;;;;;;7.06;73.19;102497.41;7388960;19;20047;-58
2023/04/30 02:52:01;;;;;;;9.95;3.72;;;;;;;7.34;72.47;102504.44;7390274;19;20011;-58
2023/04/30 02:54:28;;;;;;;10.35;3.47;;;;;;;7.58;71.14;102503.63;7389073;19;20039;-59
2023/04/30 02:56:55;;;;;;;13.65;3.80;;;;;;;7.70;70.34;102502.34;7389237;19;20053;-58
2023/04/30 02:59:22;;;;;;;11.18;3.88;;;;;;;7.46;70.89;102497.91;7390665;19;20007;-59
2023/04/30 03:01:52;;;;;;;11.70;3.80;;;;;;;7.19;72.23;102497.88;7390261;19;20021;-59
2023/04/30 03:04:19;;;;;;;9.73;3.55;;;;;;;7.38;71.57;102498.16;7388132;19;20019;-59
2023/04/30 03:06:45;;;;;;;10.82;3.95;;;;;;;7.22;72.25;102492.53;7388789;19;20022;-59
2023/04/30 03:09:13;;;;;;;7.90;3.42;;;;;;;7.50;71.20;102497.75;7386937;19;20097;-59
2023/04/30 03:11:40;;;;;;;10.30;3.88;;;;;;;7.35;71.50;102500.03;7389140;19;20014;-58
2023/04/30 03:14:08;;;;;;;12.10;4.35;;;;;;;7.06;72.37;102497.41;7388387;19;20020;-58
2023/04/30 03:16:35;;;;;;;11.43;3.95;;;;;;;7.23;72.55;102496.88;7389965;19;20511;-58
2023/04/30 03:19:02;;;;;;;9.70;3.97;;;;;;;7.47;71.35;102502.25;7389348;19;20056;-59
2023/04/30 03:21:30;;;;;;;10.93;3.90;;;;;;;7.33;71.03;102500.94;7389841;19;20018;-59
2023/04/30 03:23:57;;;;;;;8.82;3.78;;;;;;;6.99;72.37;102503.78;7387622;19;20036;-59
2023/04/30 03:26:24;;;;;;;11.43;4.03;;;;;;;6.97;72.34;102497.69;7390018;19;20119;-59
2023/04/30 03:28:53;;;;;;;11.45;3.80;;;;;;;7.26;71.48;102498.56;7387051;19;20043;-59
2023/04/30 03:31:21;;;;;;;11.63;4.07;;;;;;;7.28;71.04;102496.72;7389378;19;20055;-58
2023/04/30 03:33:48;;;;;;;12.32;3.88;;;;;;;7.41;70.11;102502.47;7386878;19;20165;-59
2023/04/30 03:36:15;;;;;;;7.80;3.53;;;;;;;7.13;71.15;102505.09;7389474;19;20014;-58
2023/04/30 03:38:42;;;;;;;11.38;4.00;;;;;;;6.89;72.20;102502.31;7387673;19;20015;-59
2023/04/30 03:41:09;;;;;;;9.88;3.97;;;;;;;6.69;73.36;102502.06;7388926;19;20014;-58
2023/04/30 03:43:37;;;;;;;11.52;4.68;;;;;;;6.92;72.91;102507.50;7388436;19;20043;-58
2023/04/30 03:46:04;;;;;;;9.68;3.92;;;;;;;7.21;71.42;102497.81;7386812;19;20044;-58
2023/04/30 03:48:31;;;;;;;9.82;4.35;;;;;;;7.37;70.99;102504.34;7390730;19;20020;-58
2023/04/30 03:50:58;;;;;;;10.35;4.43;;;;;;;7.41;70.74;102499.84;7396410;19;20039;-58
2023/04/30 03:53:25;;;;;;;13.32;4.55;;;;;;;7.42;70.39;102498.94;7395202;19;20022;-59
2023/04/30 03:55:53;;;;;;;12.02;5.05;;;;;;;7.16;71.47;102499.75;7395888;19;20039;-59
2023/04/30 03:58:21;;;;;;;10.32;5.07;;;;;;;7.21;71.43;102496.06;7396737;19;20086;-59
2023/04/30 04:00:48;;;;;;;9.55;4.90;;;;;;;7.08;71.53;102502.63;7395180;19;20011;-60
2023/04/30 04:03:16;;;;;;;13.05;5.10;;;;;;;7.08;71.69;102506.13;7393590;19;20483;-59
2023/04/30 04:05:43;;;;;;;10.98;4.75;;;;;;;7.21;71.08;102503.97;7395096;19;20028;-59
2023/04/30 04:08:11;;;;;;;10.65;5.30;;;;;;;7.03;71.77;102515.06;7395781;19;20029;-59
2023/04/30 04:10:39;;;;;;;10.27;4.78;;;;;;;7.27;70.88;102505.53;7391399;19;20022;-60
2023/04/30 04:13:06;;;;;;;10.75;5.03;;;;;;;7.34;70.62;102512.34;7393566;19;20035;-59
2023/04/30 04:15:33;;;;;;;13.98;4.75;;;;;;;7.37;70.50;102504.34;7395941;19;20018;-59
2023/04/30 04:18:02;;;;;;;14.10;5.20;;;;;;;7.35;70.19;102503.53;7395803;19;20026;-59
2023/04/30 04:20:29;;;;;;;11.82;5.00;;;;;;;7.33;70.24;102511.50;7395883;19;20018;-59
2023/04/30 04:22:56;;;;;;;9.98;4.75;;;;;;;7.33;70.31;102508.84;7394359;19;20022;-58
2023/04/30 04:25:26;;;;;;;13.50;5.43;;;;;;;7.04;70.77;102514.16;7393702;19;20041;-59
2023/04/30 04:27:53;;;;;;;13.25;4.68;;;;;;;6.80;71.99;102514.00;7394657;19;20500;-59
2023/04/30 04:30:20;;;;;;;11.13;5.15;;;;;;;6.70;73.06;102509.91;7392360;19;20040;-59
2023/04/30 04:32:49;;;;;;;10.40;4.97;;;;;;;6.69;73.30;102520.47;7394037;19;20665;-59
2023/04/30 04:35:18;;;;;;;13.40;5.35;;;;;;;6.64;73.68;102517.09;7390902;19;20018;-59
2023/04/30 04:37:45;;;;;;;13.50;5.75;;;;;;;6.84;73.03;102531.44;7392191;19;20015;-59
2023/04/30 04:40:12;;;;;;;11.45;5.65;;;;;;;6.77;72.78;102531.66;7394468;19;20015;-59
2023/04/30 04:42:42;;;;;;;13.20;6.75;;;;;;;6.96;72.35;102532.81;7390801;19;20479;-59
2023/04/30 04:45:09;;;;;;;18.30;9.38;;;;;;;7.08;71.25;102536.88;7394002;19;20090;-59
2023/04/30 04:47:37;;;;;;;20.67;12.50;;;;;;;7.09;71.19;102538.59;7394609;19;20046;-59
2023/04/30 04:50:04;;;;;;;28.25;16.98;;;;;;;7.40;70.00;102527.94;7392591;19;20010;-59
2023/04/30 04:52:31;;;;;;;30.92;19.80;;;;;;;7.42;69.18;102544.59;7394346;19;20019;-59
2023/04/30 04:55:01;;;;;;;33.65;24.15;;;;;;;7.49;68.92;102534.72;7392798;19;20026;-62
2023/04/30 04:57:29;;;;;;;35.40;24.70;;;;;;;7.55;68.46;102545.94;7394929;19;20138;-60
2023/04/30 04:59:56;;;;;;;29.70;19.90;;;;;;;7.63;68.30;102550.06;7392857;19;20027;-67
2023/04/30 05:02:23;;;;;;;25.30;17.17;;;;;;;7.24;69.75;102558.34;7393881;19;20014;-60
2023/04/30 05:04:50;;;;;;;22.67;15.07;;;;;;;7.03;70.87;102559.84;7393886;19;20014;-63
2023/04/30 05:07:18;;;;;;;22.30;14.75;;;;;;;6.98;71.49;102564.38;7394288;19;20018;-62
2023/04/30 05:09:46;;;;;;;22.63;15.18;;;;;;;6.99;71.94;102571.41;7393032;19;20366;-62
2023/04/30 05:12:14;;;;;;;24.38;15.57;;;;;;;7.11;71.74;102570.16;7393561;19;20011;-63
2023/04/30 05:14:44;;;;;;;22.08;14.00;;;;;;;7.09;71.91;102571.06;7393980;19;20147;-62
2023/04/30 05:17:11;;;;;;;22.77;12.88;;;;;;;7.22;72.61;102573.34;7394171;19;20011;-63
2023/04/30 05:19:38;;;;;;;20.45;13.00;;;;;;;7.36;72.30;102579.03;7391838;19;20018;-62
2023/04/30 05:22:05;;;;;;;26.08;13.45;;;;;;;7.39;72.24;102578.09;7393376;19;20018;-64
2023/04/30 05:24:32;;;;;;;18.73;11.73;;;;;;;7.45;72.71;102567.38;7391265;19;20015;-62
2023/04/30 05:27:01;;;;;;;19.92;11.20;;;;;;;7.49;72.78;102576.91;7393764;19;20023;-63
2023/04/30 05:29:28;;;;;;;17.65;9.07;;;;;;;7.58;73.18;102576.59;7392348;19;20035;-63
2023/04/30 05:31:56;;;;;;;16.63;8.63;;;;;;;8.00;72.31;102582.25;7392934;19;20018;-64
2023/04/30 05:34:23;;;;;;;14.40;8.35;;;;;;;8.21;71.54;102583.31;7391565;19;20010;-61
2023/04/30 05:36:50;;;;;;;15.52;7.45;;;;;;;8.39;70.83;102581.81;7392742;19;20022;-62
2023/04/30 05:39:17;;;;;;;14.70;7.70;;;;;;;8.47;70.24;102586.81;7393106;19;20055;-63
2023/04/30 05:41:46;;;;;;;12.98;6.55;;;;;;;8.28;70.21;102582.19;7391631;19;20022;-61
2023/04/30 05:44:14;;;;;;;13.23;7.00;;;;;;;8.24;70.46;102592.88;7391444;19;20045;-64
2023/04/30 05:46:41;;;;;;;13.75;5.85;;;;;;;8.38;70.18;102589.81;7393269;19;20026;-61
2023/04/30 05:49:08;;;;;;;13.98;6.07;;;;;;;8.28;70.10;102586.59;7390525;19;20025;-60
2023/04/30 05:51:35;;;;;;;16.27;5.63;;;;;;;8.39;69.73;102592.38;7392390;19;20019;-60
2023/04/30 05:54:02;;;;;;;11.93;4.88;;;;;;;8.47;68.83;102590.34;7389370;19;20044;-64
2023/04/30 05:56:29;;;;;;;10.95;5.00;;;;;;;8.38;68.45;102600.34;7392470;19;20019;-64
2023/04/30 05:59:00;;;;;;;11.55;4.90;;;;;;;8.37;69.46;102585.41;7392098;19;20097;-64
2023/04/30 06:01:28;;;;;;;12.80;5.32;;;;;;;8.45;69.11;102593.94;7392536;19;20018;-64
2023/04/30 06:04:00;;;;;;;13.40;5.32;;;;;;;8.48;69.10;102597.34;7390884;19;20010;-64
2023/04/30 06:06:27;;;;;;;14.65;5.32;;;;;;;8.52;69.43;102603.38;7392012;19;20023;-64
2023/04/30 06:08:54;;;;;;;13.88;5.10;;;;;;;8.67;68.68;102594.91;7391954;19;20018;-63
2023/04/30 06:11:26;;;;;;;12.07;4.32;;;;;;;8.92;66.42;102597.50;7389758;19;20018;-64
2023/04/30 06:13:53;;;;;;;13.43;4.53;;;;;;;8.94;66.06;102594.81;7390399;19;20017;-64
2023/04/30 06:16:20;;;;;;;10.70;4.15;;;;;;;8.95;65.60;102601.81;7389891;19;20015;-64
2023/04/30 06:18:47;;;;;;;11.95;4.55;;;;;;;9.06;64.33;102604.94;7391756;19;20479;-64
2023/04/30 06:21:19;;;;;;;14.07;4.20;;;;;;;9.17;64.24;102599.25;7392054;19;20038;-64
2023/04/30 06:23:46;;;;;;;13.95;4.00;;;;;;;9.22;63.81;102599.94;7390243;19;20014;-64
2023/04/30 06:26:15;;;;;;;8.70;3.08;;;;;;;9.12;63.57;102607.34;7389508;19;20023;-64
2023/04/30 06:28:42;;;;;;;11.18;3.20;;;;;;;9.00;63.71;102599.88;7390988;19;20018;-64
2023/04/30 06:31:10;;;;;;;10.25;3.20;;;;;;;9.02;63.94;102614.75;7388476;19;20018;-63
2023/04/30 06:33:37;;;;;;;9.77;3.10;;;;;;;9.05;63.28;102616.44;7389757;19;20113;-63
2023/04/30 06:36:04;;;;;;;10.93;3.25;;;;;;;9.18;62.65;102608.91;7391104;19;20074;-63
2023/04/30 06:38:32;;;;;;;12.82;3.63;;;;;;;9.25;62.06;102603.31;7391628;19;20010;-63
2023/04/30 06:40:59;;;;;;;9.15;2.92;;;;;;;9.30;62.56;102602.28;7391492;19;20030;-63
2023/04/30 06:43:26;;;;;;;12.07;3.90;;;;;;;9.40;62.07;102609.78;7390765;19;20054;-63
2023/04/30 06:45:53;;;;;;;13.23;3.60;;;;;;;9.44;60.93;102606.09;7390605;19;20015;-62
2023/04/30 06:48:20;;;;;;;9.50;3.20;;;;;;;9.34;60.83;102609.16;7391303;19;20015;-60
2023/04/30 06:50:47;;;;;;;11.15;3.13;;;;;;;9.39;60.62;102610.72;7389614;19;20019;-62
2023/04/30 06:53:14;;;;;;;12.32;3.35;;;;;;;9.51;60.44;102607.59;7387145;19;20015;-60
2023/04/30 06:55:41;;;;;;;7.63;2.75;;;;;;;9.59;60.56;102609.09;7390374;19;20464;-61
2023/04/30 06:58:11;;;;;;;10.63;2.38;;;;;;;9.62;59.00;102614.25;7390768;19;20022;-62
2023/04/30 07:00:38;;;;;;;12.52;2.85;;;;;;;9.60;58.67;102611.66;7390859;19;20014;-62
2023/04/30 07:03:05;;;;;;;12.88;3.00;;;;;;;9.72;58.30;102618.22;7389295;19;20047;-61
2023/04/30 07:05:33;;;;;;;7.38;2.28;;;;;;;9.85;58.39;102608.03;7390206;19;20014;-61
2023/04/30 07:08:02;;;;;;;8.85;2.20;;;;;;;9.91;57.19;102610.41;7390004;19;20044;-62
2023/04/30 07:10:30;;;;;;;8.52;2.15;;;;;;;9.89;57.03;102607.84;7389232;19;20015;-61
2023/04/30 07:12:58;;;;;;;11.45;2.80;;;;;;;9.85;56.63;102611.53;7388189;19;20026;-62
2023/04/30 07:15:27;;;;;;;7.05;2.33;;;;;;;9.82;57.05;102603.72;7390423;19;20019;-62
2023/04/30 07:17:54;;;;;;;8.80;2.83;;;;;;;10.00;56.80;102610.91;7389899;19;20040;-61
2023/04/30 07:20:21;;;;;;;10.20;2.50;;;;;;;10.05;55.62;102608.06;7388437;19;20021;-62
2023/04/30 07:22:51;;;;;;;7.40;2.10;;;;;;;10.08;55.56;102609.72;7393890;19;20048;-62
2023/04/30 07:25:21;;;;;;;9.20;2.58;;;;;;;10.17;55.87;102612.84;7397202;19;20022;-63
2023/04/30 07:27:50;;;;;;;9.07;2.17;;;;;;;10.19;55.65;102615.44;7397843;19;20018;-62
2023/04/30 07:30:17;;;;;;;8.13;2.20;;;;;;;10.21;54.76;102611.78;7395720;19;20023;-62
2023/04/30 07:32:46;;;;;;;10.57;2.58;;;;;;;10.22;54.97;102608.19;7396139;19;20026;-63
2023/04/30 07:35:13;;;;;;;8.40;2.00;;;;;;;10.28;54.55;102608.91;7395748;19;20022;-63
2023/04/30 07:37:42;;;;;;;8.52;2.13;;;;;;;10.34;54.00;102614.81;7397379;19;20483;-62
2023/04/30 07:40:12;;;;;;;5.93;2.30;;;;;;;10.36;53.26;102612.94;7396510;19;20042;-63
2023/04/30 07:42:51;;;;;;;11.50;2.90;;;;;;;10.39;53.57;102612.81;7396176;19;20014;-62
2023/04/30 07:45:19;;;;;;;9.75;2.38;;;;;;;10.48;53.72;102616.88;7396852;19;20022;-63
2023/04/30 07:47:47;;;;;;;12.85;2.90;;;;;;;10.48;53.84;102616.88;7395279;19;20025;-62
2023/04/30 07:50:14;;;;;;;8.75;2.45;;;;;;;10.43;52.79;102622.38;7394459;19;20039;-62
2023/04/30 07:52:42;;;;;;;7.30;2.10;;;;;;;10.54;52.60;102621.91;7394352;19;20399;-62
2023/04/30 07:55:09;;;;;;;7.68;2.25;;;;;;;10.63;52.57;102610.03;7395141;19;20078;-63
2023/04/30 07:57:39;;;;;;;8.23;2.53;;;;;;;10.54;52.58;102616.59;7395064;19;20022;-63
2023/04/30 08:00:10;;;;;;;9.43;2.50;;;;;;;10.50;52.38;102620.31;7396760;19;20022;-63
2023/04/30 08:02:37;;;;;;;10.60;2.70;;;;;;;10.43;52.59;102618.84;7393736;19;20015;-63
2023/04/30 08:05:04;;;;;;;11.00;2.92;;;;;;;10.65;52.81;102616.16;7394584;19;20534;-66
2023/04/30 08:07:32;;;;;;;6.90;2.33;;;;;;;10.86;51.79;102614.31;7394731;19;20019;-63
2023/04/30 08:09:59;;;;;;;7.30;2.30;;;;;;;11.04;51.52;102609.97;7394342;19;20023;-62
2023/04/30 08:12:27;;;;;;;9.15;2.55;;;;;;;10.99;50.89;102618.16;7395507;19;20508;-63
2023/04/30 08:15:03;;;;;;;8.68;2.78;;;;;;;10.87;51.19;102619.53;7394113;19;20018;-63
2023/04/30 08:17:34;;;;;;;9.40;2.47;;;;;;;10.95;51.96;102620.06;7395742;19;20018;-63
2023/04/30 08:20:03;;;;;;;10.98;2.80;;;;;;;10.86;51.84;102615.16;7395753;19;20022;-63
2023/04/30 08:22:33;;;;;;;9.15;2.50;;;;;;;10.70;52.50;102622.09;7393635;19;20493;-63
2023/04/30 08:25:01;;;;;;;9.43;2.55;;;;;;;10.64;52.63;102620.56;7395404;19;20015;-63
2023/04/30 08:27:30;;;;;;;10.85;2.60;;;;;;;10.64;52.46;102620.56;7394091;19;20022;-62
2023/04/30 08:29:57;;;;;;;8.55;2.45;;;;;;;10.63;51.73;102615.34;7394637;19;20042;-63
2023/04/30 08:32:24;;;;;;;8.45;2.85;;;;;;;10.58;51.74;102617.34;7395344;19;20014;-65
2023/04/30 08:34:52;;;;;;;8.27;2.30;;;;;;;10.61;51.43;102615.41;7391814;19;20023;-61
2023/04/30 08:37:20;;;;;;;10.13;2.80;;;;;;;10.88;51.49;102618.63;7394080;19;20078;-63
2023/04/30 08:39:50;;;;;;;8.45;2.63;;;;;;;11.01;51.21;102616.28;7394245;19;20039;-62
2023/04/30 08:42:20;;;;;;;6.97;2.13;;;;;;;11.06;51.37;102621.34;7393938;19;20057;-61
2023/04/30 08:44:47;;;;;;;9.85;2.75;;;;;;;11.09;50.68;102614.13;7393613;19;20023;-61
2023/04/30 08:47:15;;;;;;;8.05;2.10;;;;;;;11.01;50.68;102618.06;7393383;19;20027;-60
2023/04/30 08:49:44;;;;;;;8.05;2.25;;;;;;;11.01;51.15;102620.72;7392564;19;20107;-62
2023/04/30 08:52:11;;;;;;;6.82;2.22;;;;;;;11.01;50.72;102615.41;7395000;19;20018;-62
2023/04/30 08:54:42;;;;;;;9.20;2.50;;;;;;;11.05;50.98;102623.16;7394518;19;20047;-61
2023/04/30 08:57:09;;;;;;;8.00;2.30;;;;;;;11.15;51.00;102607.69;7394654;19;20047;-61
2023/04/30 08:59:39;;;;;;;8.40;2.38;;;;;;;11.17;50.89;102622.56;7394461;19;20019;-61
2023/04/30 09:02:06;;;;;;;8.27;2.33;;;;;;;11.22;50.26;102615.28;7393426;19;20019;-63
2023/04/30 09:04:36;;;;;;;9.75;2.60;;;;;;;11.22;50.32;102614.44;7393131;19;20035;-63
2023/04/30 09:07:05;;;;;;;9.35;2.60;;;;;;;11.28;50.04;102618.56;7394319;19;20024;-61
2023/04/30 09:09:40;;;;;;;8.23;2.70;;;;;;;11.32;49.68;102622.81;7393968;19;20420;-62
2023/04/30 09:12:13;;;;;;;8.32;2.78;;;;;;;11.29;49.77;102618.50;7390742;19;20014;-61
2023/04/30 09:15:02;;;;;;;7.60;2.47;;;;;;;11.36;50.02;102619.06;7393600;19;20492;-61
2023/04/30 09:17:31;;;;;;;9.55;2.58;;;;;;;11.41;50.15;102623.25;7391939;19;20098;-60
2023/04/30 09:20:09;;;;;;;10.65;2.63;;;;;;;11.51;49.53;102615.69;7393591;19;20054;-62
2023/04/30 09:22:38;;;;;;;8.02;2.40;;;;;;;11.45;49.59;102619.53;7393913;19;20026;-62
2023/04/30 09:25:06;;;;;;;8.98;2.55;;;;;;;11.50;49.14;102618.44;7392110;19;20029;-62
2023/04/30 09:27:34;;;;;;;7.53;2.50;;;;;;;11.58;49.19;102617.13;7393773;19;20041;-62
2023/04/30 09:30:02;;;;;;;8.05;2.90;;;;;;;11.57;49.07;102612.75;7392790;19;20018;-62
2023/04/30 09:32:29;;;;;;;10.35;2.58;;;;;;;11.53;49.54;102607.69;7391689;19;20030;-62
2023/04/30 09:34:56;;;;;;;7.00;2.45;;;;;;;11.59;50.00;102610.88;7391693;19;20022;-62
2023/04/30 09:37:35;;;;;;;8.98;2.53;;;;;;;11.64;49.55;102613.34;7391754;19;20012;-62
2023/04/30 09:40:05;;;;;;;9.32;3.10;;;;;;;11.61;50.63;102608.16;7392847;19;20393;-62
2023/04/30 09:42:32;;;;;;;8.57;2.55;;;;;;;11.55;50.54;102595.19;7393210;19;20022;-62
2023/04/30 09:44:59;;;;;;;8.80;2.60;;;;;;;11.62;50.81;102599.28;7392521;19;20010;-62
2023/04/30 09:47:30;;;;;;;10.05;2.92;;;;;;;11.61;50.04;102594.91;7392630;19;20134;-62
2023/04/30 09:49:59;;;;;;;8.55;2.50;;;;;;;11.66;50.26;102596.38;7392145;19;20043;-62
2023/04/30 09:52:31;;;;;;;10.35;2.75;;;;;;;11.70;49.30;102597.94;7391076;19;20361;-62
2023/04/30 09:54:58;;;;;;;6.57;2.38;;;;;;;11.69;49.26;102603.34;7393042;19;20011;-62
2023/04/30 09:57:31;;;;;;;12.13;2.78;;;;;;;11.87;49.11;102605.13;7391220;19;20019;-62
2023/04/30 09:59:59;;;;;;;9.98;2.80;;;;;;;11.84;49.10;102599.13;7392163;19;20027;-62
2023/04/30 10:02:27;;;;;;;8.23;2.83;;;;;;;11.88;49.71;102582.97;7391906;19;20014;-61
2023/04/30 10:04:57;;;;;;;7.28;2.70;;;;;;;11.80;49.41;102590.41;7392307;19;20014;-62
2023/04/30 10:07:30;;;;;;;7.32;2.50;;;;;;;11.80;49.50;102587.75;7392148;19;20468;-62
2023/04/30 10:10:10;;;;;;;8.93;2.60;;;;;;;11.79;50.05;102582.50;7392751;19;20024;-62
2023/04/30 10:12:46;;;;;;;9.73;2.65;;;;;;;11.86;49.95;102576.84;7391853;19;20015;-62
2023/04/30 10:15:25;;;;;;;9.05;2.70;;;;;;;11.83;49.40;102571.72;7390403;19;20014;-58
2023/04/30 10:18:16;;;;;;;7.55;2.47;;;;;;;11.97;50.10;102575.47;7390419;19;20022;-60
2023/04/30 10:20:49;;;;;;;11.48;3.08;;;;;;;12.14;50.23;102575.47;7388846;19;20036;-60
2023/04/30 10:23:20;;;;;;;10.98;2.70;;;;;;;12.17;49.35;102573.53;7391240;19;20018;-62
2023/04/30 10:25:49;;;;;;;14.23;2.80;;;;;;;12.10;49.04;102569.47;7391630;19;20041;-62
2023/04/30 10:28:16;;;;;;;8.57;2.35;;;;;;;12.16;49.37;102576.25;7391387;19;20382;-62
2023/04/30 10:30:43;;;;;;;7.10;2.45;;;;;;;12.21;48.89;102563.63;7390368;19;20047;-62
2023/04/30 10:33:14;;;;;;;10.02;2.60;;;;;;;12.23;49.29;102566.19;7390470;19;20014;-62
2023/04/30 10:35:59;;;;;;;8.90;2.67;;;;;;;12.37;49.24;102571.66;7391069;19;20473;-66
2023/04/30 10:38:31;;;;;;;6.50;2.55;;;;;;;12.35;48.79;102570.84;7389552;19;20510;-64
2023/04/30 10:41:01;;;;;;;8.75;2.58;;;;;;;12.28;48.87;102567.63;7391437;19;20438;-64
2023/04/30 10:43:34;;;;;;;9.00;2.70;;;;;;;12.25;48.71;102573.13;7389896;19;20548;-63
2023/04/30 10:46:01;;;;;;;9.30;2.60;;;;;;;12.20;48.68;102567.19;7390846;19;20026;-63
2023/04/30 10:48:35;;;;;;;9.98;2.55;;;;;;;12.32;49.26;102553.25;7391590;19;20031;-64
2023/04/30 10:51:02;;;;;;;6.53;2.55;;;;;;;12.43;49.80;102558.88;7390272;19;20014;-64
2023/04/30 10:53:30;;;;;;;10.18;2.33;;;;;;;12.43;48.78;102556.22;7388094;19;20040;-64
2023/04/30 10:56:07;;;;;;;6.60;2.50;;;;;;;12.34;48.75;102543.44;7391161;19;20022;-61
2023/04/30 10:58:38;;;;;;;8.10;2.28;;;;;;;12.40;48.76;102548.44;7388476;19;20030;-61
2023/04/30 11:01:10;;;;;;;10.60;2.47;;;;;;;12.46;48.13;102549.03;7390432;19;20025;-62
2023/04/30 11:03:41;;;;;;;8.55;2.25;;;;;;;12.49;48.52;102556.84;7390281;19;20625;-60
2023/04/30 11:06:18;;;;;;;6.30;2.20;;;;;;;12.50;48.04;102547.94;7386849;19;20014;-60
2023/04/30 11:08:46;;;;;;;8.45;2.55;;;;;;;12.44;47.83;102544.66;7388179;19;20037;-60
2023/04/30 11:11:22;;;;;;;8.00;2.15;;;;;;;12.53;47.49;102548.63;7389113;19;20043;-61
2023/04/30 11:13:59;;;;;;;9.20;2.60;;;;;;;12.56;47.67;102543.16;7390275;19;20022;-62
2023/04/30 11:16:33;;;;;;;8.25;2.15;;;;;;;12.66;47.96;102543.50;7389910;19;20530;-60
2023/04/30 11:19:12;;;;;;;8.95;2.33;;;;;;;12.72;47.29;102535.22;7389624;19;20348;-58
2023/04/30 11:22:14;;;;;;;10.02;2.58;;;;;;;12.75;46.91;102537.72;7389936;19;20357;-60
2023/04/30 11:24:54;;;;;;;7.30;2.40;;;;;;;12.76;47.46;102535.91;7386204;19;20497;-60
2023/04/30 11:27:25;;;;;;;10.07;2.65;;;;;;;12.80;47.28;102534.81;7389420;19;20026;-59
2023/04/30 11:29:53;;;;;;;9.82;2.40;;;;;;;12.86;47.34;102534.47;7387557;19;20015;-62
2023/04/30 11:32:23;;;;;;;8.88;2.50;;;;;;;12.92;47.83;102529.66;7388074;19;20055;-63
2023/04/30 11:34:51;;;;;;;8.00;2.50;;;;;;;13.13;48.82;102526.78;7388244;19;20014;-62